createdAt,value
2023-06-08T00:05:56.684Z,12.19
2023-06-08T00:17:56.705Z,12.16
2023-06-08T00:29:56.678Z,12.16
2023-06-08T00:41:57.694Z,12.15
2023-06-08T00:53:56.566Z,12.12
2023-06-08T01:05:56.690Z,12.13
2023-06-08T01:17:56.564Z,12.11
2023-06-08T01:29:56.645Z,12.10
2023-06-08T01:41:56.620Z,12.09
2023-06-08T01:53:56.647Z,12.07
2023-06-08T02:05:56.674Z,12.07
2023-06-08T02:17:56.685Z,12.05
2023-06-08T02:29:56.560Z,12.03
2023-06-08T02:41:56.672Z,12.03
2023-06-08T02:53:56.673Z,12.01
2023-06-08T03:05:56.650Z,12.01
2023-06-08T03:17:56.656Z,11.98
2023-06-08T03:29:56.652Z,11.97
2023-06-08T03:41:56.593Z,11.98
2023-06-08T03:53:56.545Z,11.97
2023-06-08T04:05:56.556Z,11.95
2023-06-08T04:17:58.805Z,11.95
2023-06-08T04:29:56.555Z,11.95
2023-06-08T04:41:56.629Z,11.95
2023-06-08T04:53:56.672Z,11.95
2023-06-08T05:05:56.670Z,11.95
2023-06-08T05:17:56.565Z,11.97
2023-06-08T05:29:57.626Z,11.98
2023-06-08T05:41:56.669Z,11.99
2023-06-08T05:53:56.686Z,12.00
2023-06-08T06:05:57.854Z,12.02
2023-06-08T06:17:56.603Z,12.03
2023-06-08T06:29:56.668Z,12.05
2023-06-08T06:41:56.562Z,12.09
2023-06-08T06:53:56.670Z,12.23
2023-06-08T07:05:56.659Z,12.33
2023-06-08T07:17:56.724Z,12.47
2023-06-08T07:29:56.582Z,12.58
2023-06-08T07:41:56.586Z,12.64
2023-06-08T07:53:59.545Z,12.63
2023-06-08T08:05:56.578Z,12.64
2023-06-08T08:17:56.606Z,12.65
2023-06-08T08:29:56.562Z,12.65
2023-06-08T08:41:56.558Z,12.66
2023-06-08T08:53:56.563Z,12.67
2023-06-08T09:05:56.614Z,12.66
2023-06-08T09:17:56.597Z,12.65
2023-06-08T09:29:56.558Z,12.64
2023-06-08T09:42:00.565Z,12.64
2023-06-08T09:53:56.553Z,12.65
2023-06-08T10:05:56.584Z,12.64
2023-06-08T10:17:56.786Z,12.64
2023-06-08T10:29:56.717Z,12.66
2023-06-08T10:41:56.552Z,12.68
2023-06-08T10:53:56.735Z,12.68
2023-06-08T11:05:56.668Z,12.68
2023-06-08T11:17:56.621Z,12.67
2023-06-08T11:30:01.033Z,12.68
2023-06-08T11:41:56.561Z,12.68
2023-06-08T11:53:56.561Z,12.66
2023-06-08T12:05:56.557Z,12.67
2023-06-08T12:17:56.709Z,12.67
2023-06-08T12:29:56.555Z,12.67
2023-06-08T12:41:56.558Z,12.67
2023-06-08T12:53:56.666Z,12.67
2023-06-08T13:05:56.702Z,12.68
2023-06-08T13:18:02.958Z,12.68
2023-06-08T13:29:56.627Z,12.68
2023-06-08T13:41:56.559Z,12.68
2023-06-08T13:53:56.566Z,12.68
2023-06-08T14:05:56.584Z,12.68
2023-06-08T14:17:56.611Z,12.67
2023-06-08T14:29:56.573Z,12.67
2023-06-08T14:41:56.591Z,12.67
2023-06-08T14:53:56.574Z,12.68
2023-06-08T15:05:56.583Z,12.68
2023-06-08T15:17:56.749Z,12.68
2023-06-08T15:29:56.785Z,12.66
2023-06-08T15:41:56.549Z,12.66
2023-06-08T15:53:56.658Z,12.64
2023-06-08T16:05:56.571Z,12.62
2023-06-08T16:17:56.648Z,12.60
2023-06-08T16:29:56.603Z,12.59
2023-06-08T16:41:56.611Z,12.58
2023-06-08T16:53:56.571Z,12.59
2023-06-08T17:05:56.657Z,12.60
2023-06-08T17:18:03.079Z,12.59
2023-06-08T17:29:59.164Z,12.60
2023-06-08T17:41:56.620Z,12.60
2023-06-08T17:53:56.615Z,12.60
2023-06-08T18:06:04.803Z,12.60
2023-06-08T18:17:56.644Z,12.59
2023-06-08T18:29:56.639Z,12.59
2023-06-08T18:41:56.560Z,12.58
2023-06-08T18:53:56.560Z,12.57
2023-06-08T19:05:58.100Z,12.56
2023-06-08T19:17:56.635Z,12.55
2023-06-08T19:29:56.678Z,12.53
2023-06-08T19:41:56.558Z,12.52
2023-06-08T19:53:56.630Z,12.51
2023-06-08T20:05:56.681Z,12.49
2023-06-08T20:17:56.793Z,12.48
2023-06-08T20:29:56.663Z,12.45
2023-06-08T20:41:56.618Z,12.46
2023-06-08T20:53:56.658Z,12.44
2023-06-08T21:05:56.801Z,12.43
2023-06-08T21:17:56.677Z,12.41
2023-06-08T21:29:56.586Z,12.41
2023-06-08T21:41:56.581Z,12.39
2023-06-08T21:53:56.577Z,12.38
2023-06-08T22:05:56.574Z,12.37
2023-06-08T22:17:56.602Z,12.35
2023-06-08T22:29:56.563Z,12.34
2023-06-08T22:41:56.659Z,12.33
2023-06-08T22:53:56.652Z,12.31
2023-06-08T23:05:56.570Z,12.31
2023-06-08T23:17:56.687Z,12.29
2023-06-08T23:29:56.673Z,12.29
2023-06-08T23:41:56.599Z,12.27
2023-06-08T23:53:56.554Z,12.25
